sensor_id;sensor_type;location;lat;lon;timestamp;pressure;altitude;pressure_sealevel;temperature;humidity
53440;BME280;39333;47.044;15.080;2022-10-16T00:01:11;96505.72;;;10.80;76.00
53440;BME280;39333;47.044;15.080;2022-10-16T00:03:40;96524.63;;;10.84;75.83
53440;BME280;39333;47.044;15.080;2022-10-16T00:06:09;96532.47;;;10.79;76.66
53440;BME280;39333;47.044;15.080;2022-10-16T00:08:37;96533.69;;;10.71;77.30
53440;BME280;39333;47.044;15.080;2022-10-16T00:11:10;96536.31;;;10.71;76.47
53440;BME280;39333;47.044;15.080;2022-10-16T00:13:39;96537.84;;;10.67;76.05
53440;BME280;39333;47.044;15.080;2022-10-16T00:16:07;96533.34;;;10.68;75.80
53440;BME280;39333;47.044;15.080;2022-10-16T00:18:35;96532.38;;;10.74;75.73
53440;BME280;39333;47.044;15.080;2022-10-16T00:21:12;96536.88;;;10.73;75.26
53440;BME280;39333;47.044;15.080;2022-10-16T00:23:39;96542.66;;;10.70;75.35
53440;BME280;39333;47.044;15.080;2022-10-16T00:26:14;96533.81;;;10.53;76.50
53440;BME280;39333;47.044;15.080;2022-10-16T00:28:42;96532.44;;;10.50;76.25
53440;BME280;39333;47.044;15.080;2022-10-16T00:31:10;96534.63;;;10.54;75.80
53440;BME280;39333;47.044;15.080;2022-10-16T00:33:39;96538.09;;;10.54;75.85
53440;BME280;39333;47.044;15.080;2022-10-16T00:36:08;96540.16;;;10.52;76.05
53440;BME280;39333;47.044;15.080;2022-10-16T00:38:35;96546.59;;;10.56;76.01
53440;BME280;39333;47.044;15.080;2022-10-16T00:41:10;96548.00;;;10.47;76.09
53440;BME280;39333;47.044;15.080;2022-10-16T00:43:45;96548.59;;;10.49;76.10
53440;BME280;39333;47.044;15.080;2022-10-16T00:46:38;96548.81;;;10.47;76.25
53440;BME280;39333;47.044;15.080;2022-10-16T00:51:41;96554.00;;;10.54;75.98
53440;BME280;39333;47.044;15.080;2022-10-16T00:54:15;96543.47;;;10.59;75.41
53440;BME280;39333;47.044;15.080;2022-10-16T00:56:43;96551.44;;;10.59;75.86
53440;BME280;39333;47.044;15.080;2022-10-16T00:59:16;96549.13;;;10.63;75.93
53440;BME280;39333;47.044;15.080;2022-10-16T01:01:43;96551.78;;;10.63;75.47
53440;BME280;39333;47.044;15.080;2022-10-16T01:04:09;96546.47;;;10.63;75.54
53440;BME280;39333;47.044;15.080;2022-10-16T01:06:51;96545.09;;;10.60;76.19
53440;BME280;39333;47.044;15.080;2022-10-16T01:09:30;96539.13;;;10.53;77.04
53440;BME280;39333;47.044;15.080;2022-10-16T01:12:15;96542.69;;;10.47;78.74
53440;BME280;39333;47.044;15.080;2022-10-16T01:14:53;96548.47;;;10.44;79.24
53440;BME280;39333;47.044;15.080;2022-10-16T01:17:28;96541.78;;;10.53;78.10
53440;BME280;39333;47.044;15.080;2022-10-16T01:28:13;96536.69;;;10.63;76.94
53440;BME280;39333;47.044;15.080;2022-10-16T01:30:43;96544.75;;;10.68;77.29
53440;BME280;39333;47.044;15.080;2022-10-16T01:33:19;96543.56;;;10.76;77.85
53440;BME280;39333;47.044;15.080;2022-10-16T01:35:54;96545.75;;;10.79;76.78
53440;BME280;39333;47.044;15.080;2022-10-16T01:38:29;96545.41;;;10.75;76.28
53440;BME280;39333;47.044;15.080;2022-10-16T01:41:01;96543.22;;;10.72;76.43
53440;BME280;39333;47.044;15.080;2022-10-16T01:43:33;96551.16;;;10.72;76.06
53440;BME280;39333;47.044;15.080;2022-10-16T01:46:02;96536.88;;;10.73;76.28
53440;BME280;39333;47.044;15.080;2022-10-16T01:48:29;96547.47;;;10.73;76.33
53440;BME280;39333;47.044;15.080;2022-10-16T01:51:03;96539.06;;;10.76;76.70
53440;BME280;39333;47.044;15.080;2022-10-16T01:53:32;96541.47;;;10.78;76.74
53440;BME280;39333;47.044;15.080;2022-10-16T01:56:00;96532.38;;;10.74;76.29
53440;BME280;39333;47.044;15.080;2022-10-16T01:58:28;96534.78;;;10.75;75.97
53440;BME280;39333;47.044;15.080;2022-10-16T02:01:02;96532.53;;;10.67;77.10
53440;BME280;39333;47.044;15.080;2022-10-16T02:03:32;96534.38;;;10.67;76.58
53440;BME280;39333;47.044;15.080;2022-10-16T02:06:00;96534.50;;;10.60;76.63
53440;BME280;39333;47.044;15.080;2022-10-16T02:08:28;96529.88;;;10.56;76.87
53440;BME280;39333;47.044;15.080;2022-10-16T02:10:57;96527.84;;;10.46;76.72
53440;BME280;39333;47.044;15.080;2022-10-16T02:13:35;96525.44;;;10.33;77.95
53440;BME280;39333;47.044;15.080;2022-10-16T02:16:04;96520.72;;;10.35;77.30
53440;BME280;39333;47.044;15.080;2022-10-16T02:18:31;96529.59;;;10.29;77.31
53440;BME280;39333;47.044;15.080;2022-10-16T02:26:49;96535.81;;;10.34;75.69
53440;BME280;39333;47.044;15.080;2022-10-16T02:29:23;96541.22;;;10.28;76.82
53440;BME280;39333;47.044;15.080;2022-10-16T02:31:55;96531.00;;;10.20;77.56
53440;BME280;39333;47.044;15.080;2022-10-16T02:34:24;96540.84;;;10.12;77.85
53440;BME280;39333;47.044;15.080;2022-10-16T02:36:52;96542.91;;;10.10;77.21
53440;BME280;39333;47.044;15.080;2022-10-16T02:39:20;96536.00;;;10.09;77.09
53440;BME280;39333;47.044;15.080;2022-10-16T02:41:47;96541.22;;;10.16;77.04
53440;BME280;39333;47.044;15.080;2022-10-16T02:44:14;96550.19;;;10.15;77.08
53440;BME280;39333;47.044;15.080;2022-10-16T02:46:41;96551.38;;;10.19;76.73
53440;BME280;39333;47.044;15.080;2022-10-16T02:49:07;96550.66;;;10.24;76.57
53440;BME280;39333;47.044;15.080;2022-10-16T02:51:34;96544.66;;;10.16;76.32
53440;BME280;39333;47.044;15.080;2022-10-16T02:54:02;96553.00;;;10.20;76.46
53440;BME280;39333;47.044;15.080;2022-10-16T02:56:29;96559.09;;;10.21;76.94
53440;BME280;39333;47.044;15.080;2022-10-16T02:58:56;96568.66;;;10.22;76.71
53440;BME280;39333;47.044;15.080;2022-10-16T03:01:24;96564.41;;;10.21;76.40
53440;BME280;39333;47.044;15.080;2022-10-16T03:03:50;96570.34;;;10.16;76.63
53440;BME280;39333;47.044;15.080;2022-10-16T03:06:17;96564.41;;;10.21;76.35
53440;BME280;39333;47.044;15.080;2022-10-16T03:08:44;96562.78;;;10.20;76.00
53440;BME280;39333;47.044;15.080;2022-10-16T03:11:10;96561.16;;;10.19;76.18
53440;BME280;39333;47.044;15.080;2022-10-16T03:13:37;96564.47;;;10.14;76.39
53440;BME280;39333;47.044;15.080;2022-10-16T03:16:04;96563.22;;;10.05;76.88
53440;BME280;39333;47.044;15.080;2022-10-16T03:18:30;96570.81;;;10.01;77.87
53440;BME280;39333;47.044;15.080;2022-10-16T03:20:57;96574.72;;;9.87;78.84
53440;BME280;39333;47.044;15.080;2022-10-16T03:23:24;96571.69;;;9.72;79.68
53440;BME280;39333;47.044;15.080;2022-10-16T03:25:50;96569.13;;;9.65;79.65
53440;BME280;39333;47.044;15.080;2022-10-16T03:28:17;96567.53;;;9.64;79.03
53440;BME280;39333;47.044;15.080;2022-10-16T03:30:44;96568.94;;;9.78;78.80
53440;BME280;39333;47.044;15.080;2022-10-16T03:33:11;96568.69;;;9.80;78.04
53440;BME280;39333;47.044;15.080;2022-10-16T03:35:37;96572.16;;;9.80;77.75
53440;BME280;39333;47.044;15.080;2022-10-16T03:38:04;96575.72;;;9.74;78.30
53440;BME280;39333;47.044;15.080;2022-10-16T03:40:31;96582.38;;;9.65;79.73
53440;BME280;39333;47.044;15.080;2022-10-16T03:43:00;96589.59;;;9.58;79.84
53440;BME280;39333;47.044;15.080;2022-10-16T03:45:27;96585.38;;;9.69;78.83
53440;BME280;39333;47.044;15.080;2022-10-16T03:47:54;96595.41;;;9.78;77.87
53440;BME280;39333;47.044;15.080;2022-10-16T03:50:21;96598.88;;;9.79;77.29
53440;BME280;39333;47.044;15.080;2022-10-16T03:52:47;96591.94;;;9.78;76.96
53440;BME280;39333;47.044;15.080;2022-10-16T03:55:14;96596.00;;;9.80;76.96
53440;BME280;39333;47.044;15.080;2022-10-16T03:57:41;96590.56;;;9.75;76.41
53440;BME280;39333;47.044;15.080;2022-10-16T04:00:08;96589.66;;;9.70;76.93
53440;BME280;39333;47.044;15.080;2022-10-16T04:02:38;96593.47;;;9.74;76.69
53440;BME280;39333;47.044;15.080;2022-10-16T04:05:05;96590.34;;;9.77;76.51
53440;BME280;39333;47.044;15.080;2022-10-16T04:07:32;96598.75;;;9.74;76.61
53440;BME280;39333;47.044;15.080;2022-10-16T04:09:58;96592.41;;;9.75;76.95
53440;BME280;39333;47.044;15.080;2022-10-16T04:12:26;96603.56;;;9.77;76.56
53440;BME280;39333;47.044;15.080;2022-10-16T04:14:52;96601.28;;;9.69;77.62
53440;BME280;39333;47.044;15.080;2022-10-16T04:17:19;96598.16;;;9.72;77.18
53440;BME280;39333;47.044;15.080;2022-10-16T04:19:46;96604.06;;;9.74;76.98
53440;BME280;39333;47.044;15.080;2022-10-16T04:22:12;96605.91;;;9.73;76.83
53440;BME280;39333;47.044;15.080;2022-10-16T04:24:39;96607.84;;;9.78;77.09
53440;BME280;39333;47.044;15.080;2022-10-16T04:27:06;96594.16;;;9.81;77.21
53440;BME280;39333;47.044;15.080;2022-10-16T04:29:33;96600.38;;;9.87;76.86
53440;BME280;39333;47.044;15.080;2022-10-16T04:32:00;96607.84;;;9.78;77.19
53440;BME280;39333;47.044;15.080;2022-10-16T04:34:26;96595.03;;;9.63;76.85
53440;BME280;39333;47.044;15.080;2022-10-16T04:36:53;96602.06;;;9.58;77.14
53440;BME280;39333;47.044;15.080;2022-10-16T04:39:19;96597.22;;;9.66;77.22
53440;BME280;39333;47.044;15.080;2022-10-16T04:41:46;96601.94;;;9.64;77.00
53440;BME280;39333;47.044;15.080;2022-10-16T04:44:13;96611.50;;;9.65;77.06
53440;BME280;39333;47.044;15.080;2022-10-16T04:46:39;96616.56;;;9.67;76.79
53440;BME280;39333;47.044;15.080;2022-10-16T04:49:06;96606.69;;;9.74;77.04
53440;BME280;39333;47.044;15.080;2022-10-16T04:51:33;96610.72;;;9.76;76.63
53440;BME280;39333;47.044;15.080;2022-10-16T04:53:59;96608.53;;;9.73;76.83
53440;BME280;39333;47.044;15.080;2022-10-16T04:56:26;96600.81;;;9.72;76.61
53440;BME280;39333;47.044;15.080;2022-10-16T04:58:53;96601.84;;;9.71;76.42
53440;BME280;39333;47.044;15.080;2022-10-16T05:01:20;96608.84;;;9.65;76.06
53440;BME280;39333;47.044;15.080;2022-10-16T05:03:46;96614.94;;;9.66;76.07
53440;BME280;39333;47.044;15.080;2022-10-16T05:06:13;96613.91;;;9.55;76.42
53440;BME280;39333;47.044;15.080;2022-10-16T05:08:40;96616.47;;;9.43;77.68
53440;BME280;39333;47.044;15.080;2022-10-16T05:11:06;96614.53;;;9.39;78.42
53440;BME280;39333;47.044;15.080;2022-10-16T05:13:33;96612.69;;;9.39;77.87
53440;BME280;39333;47.044;15.080;2022-10-16T05:15:59;96612.00;;;9.44;77.24
53440;BME280;39333;47.044;15.080;2022-10-16T05:18:26;96613.16;;;9.48;77.03
53440;BME280;39333;47.044;15.080;2022-10-16T05:20:53;96619.13;;;9.43;76.61
53440;BME280;39333;47.044;15.080;2022-10-16T05:23:19;96620.31;;;9.47;77.11
53440;BME280;39333;47.044;15.080;2022-10-16T05:25:56;96641.63;;;9.53;76.50
53440;BME280;39333;47.044;15.080;2022-10-16T05:28:26;96640.66;;;9.47;76.93
53440;BME280;39333;47.044;15.080;2022-10-16T05:30:53;96635.47;;;9.40;77.59
53440;BME280;39333;47.044;15.080;2022-10-16T05:33:21;96637.78;;;9.48;77.40
53440;BME280;39333;47.044;15.080;2022-10-16T05:35:48;96635.97;;;9.49;77.26
53440;BME280;39333;47.044;15.080;2022-10-16T05:38:17;96633.09;;;9.51;77.00
53440;BME280;39333;47.044;15.080;2022-10-16T05:40:51;96634.72;;;9.52;77.12
53440;BME280;39333;47.044;15.080;2022-10-16T05:43:19;96638.38;;;9.51;76.21
53440;BME280;39333;47.044;15.080;2022-10-16T05:45:56;96635.75;;;9.51;76.64
53440;BME280;39333;47.044;15.080;2022-10-16T05:48:24;96634.34;;;9.48;76.65
53440;BME280;39333;47.044;15.080;2022-10-16T05:51:06;96647.34;;;9.50;76.89
53440;BME280;39333;47.044;15.080;2022-10-16T05:53:37;96657.22;;;9.42;77.62
53440;BME280;39333;47.044;15.080;2022-10-16T05:56:06;96650.75;;;9.38;78.28
53440;BME280;39333;47.044;15.080;2022-10-16T05:58:37;96655.63;;;9.41;78.45
53440;BME280;39333;47.044;15.080;2022-10-16T06:01:14;96658.75;;;9.50;77.85
53440;BME280;39333;47.044;15.080;2022-10-16T06:03:42;96670.16;;;9.51;78.05
53440;BME280;39333;47.044;15.080;2022-10-16T06:06:14;96678.22;;;9.56;77.72
53440;BME280;39333;47.044;15.080;2022-10-16T06:08:42;96684.22;;;9.63;77.35
53440;BME280;39333;47.044;15.080;2022-10-16T06:11:12;96682.59;;;9.62;77.68
53440;BME280;39333;47.044;15.080;2022-10-16T06:13:39;96684.22;;;9.63;78.25
53440;BME280;39333;47.044;15.080;2022-10-16T06:16:10;96691.44;;;9.74;78.60
53440;BME280;39333;47.044;15.080;2022-10-16T06:18:37;96699.25;;;9.80;76.93
53440;BME280;39333;47.044;15.080;2022-10-16T06:21:30;96707.06;;;10.05;77.34
53440;BME280;39333;47.044;15.080;2022-10-16T06:23:57;96704.59;;;10.22;76.60
53440;BME280;39333;47.044;15.080;2022-10-16T06:26:26;96715.09;;;10.40;76.85
53440;BME280;39333;47.044;15.080;2022-10-16T06:28:57;96718.25;;;10.49;74.88
53440;BME280;39333;47.044;15.080;2022-10-16T06:31:25;96717.78;;;10.52;76.66
53440;BME280;39333;47.044;15.080;2022-10-16T06:33:54;96729.16;;;10.29;78.75
53440;BME280;39333;47.044;15.080;2022-10-16T06:36:23;96726.28;;;10.31;79.60
53440;BME280;39333;47.044;15.080;2022-10-16T06:38:50;96727.00;;;10.49;78.63
53440;BME280;39333;47.044;15.080;2022-10-16T06:41:19;96736.59;;;10.74;76.92
53440;BME280;39333;47.044;15.080;2022-10-16T06:43:47;96737.06;;;10.94;77.32
53440;BME280;39333;47.044;15.080;2022-10-16T06:46:16;96744.19;;;11.17;76.84
53440;BME280;39333;47.044;15.080;2022-10-16T06:48:44;96745.75;;;11.41;76.96
53440;BME280;39333;47.044;15.080;2022-10-16T06:51:13;96739.38;;;11.66;77.24
53440;BME280;39333;47.044;15.080;2022-10-16T06:53:46;96748.41;;;11.93;76.30
53440;BME280;39333;47.044;15.080;2022-10-16T06:56:29;96747.03;;;12.19;76.59
53440;BME280;39333;47.044;15.080;2022-10-16T06:58:57;96750.28;;;12.38;75.64
53440;BME280;39333;47.044;15.080;2022-10-16T07:01:25;96765.22;;;12.55;74.77
53440;BME280;39333;47.044;15.080;2022-10-16T07:03:52;96758.13;;;12.78;75.60
53440;BME280;39333;47.044;15.080;2022-10-16T07:06:23;96763.44;;;12.94;73.98
53440;BME280;39333;47.044;15.080;2022-10-16T07:08:50;96758.19;;;13.16;73.75
53440;BME280;39333;47.044;15.080;2022-10-16T07:11:19;96762.13;;;13.30;73.19
53440;BME280;39333;47.044;15.080;2022-10-16T07:13:47;96755.69;;;13.48;73.03
53440;BME280;39333;47.044;15.080;2022-10-16T07:16:26;96763.47;;;13.72;72.98
53440;BME280;39333;47.044;15.080;2022-10-16T07:18:54;96755.47;;;13.93;73.06
53440;BME280;39333;47.044;15.080;2022-10-16T07:21:28;96756.44;;;14.09;72.48
53440;BME280;39333;47.044;15.080;2022-10-16T07:23:57;96755.56;;;14.30;72.21
53440;BME280;39333;47.044;15.080;2022-10-16T07:26:25;96754.22;;;14.55;71.98
53440;BME280;39333;47.044;15.080;2022-10-16T07:28:52;96747.44;;;14.74;70.39
53440;BME280;39333;47.044;15.080;2022-10-16T07:31:20;96747.53;;;14.84;69.83
53440;BME280;39333;47.044;15.080;2022-10-16T07:33:47;96747.88;;;14.98;69.37
53440;BME280;39333;47.044;15.080;2022-10-16T07:36:16;96746.16;;;15.19;69.75
53440;BME280;39333;47.044;15.080;2022-10-16T07:38:44;96747.88;;;15.40;69.09
53440;BME280;39333;47.044;15.080;2022-10-16T07:41:16;96742.31;;;15.52;69.13
53440;BME280;39333;47.044;15.080;2022-10-16T07:43:47;96746.69;;;15.63;68.69
53440;BME280;39333;47.044;15.080;2022-10-16T07:46:14;96753.16;;;15.72;68.59
53440;BME280;39333;47.044;15.080;2022-10-16T07:48:42;96752.69;;;15.90;68.34
53440;BME280;39333;47.044;15.080;2022-10-16T07:51:13;96744.41;;;15.97;67.97
53440;BME280;39333;47.044;15.080;2022-10-16T07:53:40;96751.88;;;15.95;67.93
53440;BME280;39333;47.044;15.080;2022-10-16T07:56:07;96752.16;;;15.98;66.85
53440;BME280;39333;47.044;15.080;2022-10-16T07:58:35;96762.63;;;16.15;66.93
53440;BME280;39333;47.044;15.080;2022-10-16T08:01:06;96763.75;;;16.44;66.76
53440;BME280;39333;47.044;15.080;2022-10-16T08:03:34;96757.13;;;16.83;66.42
53440;BME280;39333;47.044;15.080;2022-10-16T08:06:01;96758.97;;;17.07;65.90
53440;BME280;39333;47.044;15.080;2022-10-16T08:08:28;96764.81;;;17.40;64.73
53440;BME280;39333;47.044;15.080;2022-10-16T08:10:55;96757.28;;;17.67;64.15
53440;BME280;39333;47.044;15.080;2022-10-16T08:13:22;96764.16;;;17.89;60.90
53440;BME280;39333;47.044;15.080;2022-10-16T08:15:49;96759.25;;;18.06;60.50
53440;BME280;39333;47.044;15.080;2022-10-16T08:18:16;96763.72;;;18.26;60.39
53440;BME280;39333;47.044;15.080;2022-10-16T08:20:43;96759.59;;;18.43;60.56
53440;BME280;39333;47.044;15.080;2022-10-16T08:23:11;96760.31;;;18.59;60.69
53440;BME280;39333;47.044;15.080;2022-10-16T08:25:39;96766.13;;;18.71;60.61
53440;BME280;39333;47.044;15.080;2022-10-16T08:28:08;96766.38;;;18.75;60.55
53440;BME280;39333;47.044;15.080;2022-10-16T08:30:36;96763.81;;;18.94;59.83
53440;BME280;39333;47.044;15.080;2022-10-16T08:33:03;96759.09;;;19.09;56.53
53440;BME280;39333;47.044;15.080;2022-10-16T08:35:31;96763.09;;;19.41;59.90
53440;BME280;39333;47.044;15.080;2022-10-16T08:38:03;96771.88;;;19.51;58.77
53440;BME280;39333;47.044;15.080;2022-10-16T08:40:32;96765.47;;;19.71;58.38
53440;BME280;39333;47.044;15.080;2022-10-16T08:48:20;96761.53;;;19.87;55.10
53440;BME280;39333;47.044;15.080;2022-10-16T08:50:48;96758.81;;;20.11;54.05
53440;BME280;39333;47.044;15.080;2022-10-16T08:53:25;96770.22;;;20.22;51.61
53440;BME280;39333;47.044;15.080;2022-10-16T08:55:54;96772.25;;;20.30;53.10
53440;BME280;39333;47.044;15.080;2022-10-16T08:58:23;96778.66;;;20.39;52.05
53440;BME280;39333;47.044;15.080;2022-10-16T09:00:58;96780.41;;;19.82;54.81
53440;BME280;39333;47.044;15.080;2022-10-16T09:11:56;96773.34;;;20.10;57.27
53440;BME280;39333;47.044;15.080;2022-10-16T09:17:01;96782.31;;;20.24;57.39
53440;BME280;39333;47.044;15.080;2022-10-16T09:19:39;96779.28;;;20.50;56.38
53440;BME280;39333;47.044;15.080;2022-10-16T09:22:14;96784.22;;;20.24;56.26
53440;BME280;39333;47.044;15.080;2022-10-16T09:24:41;96780.63;;;20.10;56.74
53440;BME280;39333;47.044;15.080;2022-10-16T09:27:15;96769.41;;;20.45;56.28
53440;BME280;39333;47.044;15.080;2022-10-16T09:29:41;96779.44;;;20.77;55.75
53440;BME280;39333;47.044;15.080;2022-10-16T09:32:18;96778.19;;;20.88;55.31
53440;BME280;39333;47.044;15.080;2022-10-16T09:34:48;96782.78;;;20.88;53.88
53440;BME280;39333;47.044;15.080;2022-10-16T09:37:18;96785.97;;;20.90;54.26
53440;BME280;39333;47.044;15.080;2022-10-16T09:39:51;96783.53;;;21.07;53.85
53440;BME280;39333;47.044;15.080;2022-10-16T09:42:20;96780.84;;;21.26;53.52
53440;BME280;39333;47.044;15.080;2022-10-16T09:44:49;96783.44;;;21.12;53.57
53440;BME280;39333;47.044;15.080;2022-10-16T09:47:23;96781.66;;;21.08;53.33
53440;BME280;39333;47.044;15.080;2022-10-16T09:50:01;96790.53;;;21.08;53.63
53440;BME280;39333;47.044;15.080;2022-10-16T09:52:29;96805.22;;;21.48;54.10
53440;BME280;39333;47.044;15.080;2022-10-16T09:55:14;96805.44;;;21.52;52.20
53440;BME280;39333;47.044;15.080;2022-10-16T09:57:52;96799.97;;;21.57;52.01
53440;BME280;39333;47.044;15.080;2022-10-16T10:00:20;96796.47;;;21.70;52.48
53440;BME280;39333;47.044;15.080;2022-10-16T10:02:47;96793.47;;;21.72;51.53
53440;BME280;39333;47.044;15.080;2022-10-16T10:05:26;96792.41;;;22.14;53.96
53440;BME280;39333;47.044;15.080;2022-10-16T10:08:01;96784.66;;;22.34;50.02
53440;BME280;39333;47.044;15.080;2022-10-16T10:10:34;96789.94;;;22.53;50.65
53440;BME280;39333;47.044;15.080;2022-10-16T10:13:03;96787.72;;;22.55;49.61
53440;BME280;39333;47.044;15.080;2022-10-16T10:15:34;96778.28;;;22.66;53.68
53440;BME280;39333;47.044;15.080;2022-10-16T10:18:02;96788.59;;;22.64;50.41
53440;BME280;39333;47.044;15.080;2022-10-16T10:20:36;96782.59;;;22.67;49.70
53440;BME280;39333;47.044;15.080;2022-10-16T10:23:22;96787.41;;;22.57;49.05
53440;BME280;39333;47.044;15.080;2022-10-16T10:26:20;96786.56;;;21.93;47.64
53440;BME280;39333;47.044;15.080;2022-10-16T10:29:06;96780.00;;;22.13;48.56
53440;BME280;39333;47.044;15.080;2022-10-16T10:40:16;96767.66;;;21.93;46.81
53440;BME280;39333;47.044;15.080;2022-10-16T10:42:53;96767.09;;;22.10;46.93
53440;BME280;39333;47.044;15.080;2022-10-16T10:45:41;96767.50;;;21.89;46.84
53440;BME280;39333;47.044;15.080;2022-10-16T10:51:12;96769.69;;;22.15;45.20
53440;BME280;39333;47.044;15.080;2022-10-16T10:53:42;96769.56;;;22.69;46.45
53440;BME280;39333;47.044;15.080;2022-10-16T11:04:23;96764.59;;;23.08;48.45
53440;BME280;39333;47.044;15.080;2022-10-16T11:06:59;96769.53;;;22.47;45.64
53440;BME280;39333;47.044;15.080;2022-10-16T11:09:43;96765.50;;;23.25;51.23
53440;BME280;39333;47.044;15.080;2022-10-16T11:12:22;96761.66;;;22.95;44.71
53440;BME280;39333;47.044;15.080;2022-10-16T11:17:23;96763.09;;;23.77;47.29
53440;BME280;39333;47.044;15.080;2022-10-16T11:20:11;96763.06;;;23.37;43.86
53440;BME280;39333;47.044;15.080;2022-10-16T11:23:08;96764.41;;;23.26;45.42
53440;BME280;39333;47.044;15.080;2022-10-16T11:25:39;96752.22;;;23.68;46.04
53440;BME280;39333;47.044;15.080;2022-10-16T11:28:16;96745.38;;;23.71;48.50
53440;BME280;39333;47.044;15.080;2022-10-16T11:31:08;96755.50;;;23.57;49.78
53440;BME280;39333;47.044;15.080;2022-10-16T11:33:40;96748.72;;;24.25;47.30
53440;BME280;39333;47.044;15.080;2022-10-16T11:36:28;96749.78;;;23.98;45.61
53440;BME280;39333;47.044;15.080;2022-10-16T11:41:37;96753.84;;;23.16;50.36
53440;BME280;39333;47.044;15.080;2022-10-16T11:49:59;96751.16;;;23.16;47.95
53440;BME280;39333;47.044;15.080;2022-10-16T11:52:44;96745.50;;;23.04;50.69
53440;BME280;39333;47.044;15.080;2022-10-16T11:55:18;96753.13;;;24.03;51.13
53440;BME280;39333;47.044;15.080;2022-10-16T11:57:57;96752.44;;;24.72;45.46
53440;BME280;39333;47.044;15.080;2022-10-16T12:03:49;96747.63;;;24.52;48.78
53440;BME280;39333;47.044;15.080;2022-10-16T12:06:30;96751.31;;;25.16;54.77
53440;BME280;39333;47.044;15.080;2022-10-16T12:09:00;96747.06;;;25.44;44.17
53440;BME280;39333;47.044;15.080;2022-10-16T12:11:38;96750.16;;;25.17;46.04
53440;BME280;39333;47.044;15.080;2022-10-16T12:19:22;96750.50;;;24.72;44.93
53440;BME280;39333;47.044;15.080;2022-10-16T12:21:51;96743.19;;;24.64;46.96
53440;BME280;39333;47.044;15.080;2022-10-16T12:26:50;96746.28;;;25.44;47.43
53440;BME280;39333;47.044;15.080;2022-10-16T12:29:37;96756.16;;;25.95;50.46
53440;BME280;39333;47.044;15.080;2022-10-16T12:32:27;96761.19;;;25.76;47.94
53440;BME280;39333;47.044;15.080;2022-10-16T12:35:17;96756.81;;;25.92;42.94
53440;BME280;39333;47.044;15.080;2022-10-16T12:37:46;96765.41;;;25.65;43.95
53440;BME280;39333;47.044;15.080;2022-10-16T12:40:26;96764.22;;;25.19;49.57
53440;BME280;39333;47.044;15.080;2022-10-16T12:42:53;96758.50;;;25.12;43.38
53440;BME280;39333;47.044;15.080;2022-10-16T12:45:30;96761.22;;;25.03;48.69
53440;BME280;39333;47.044;15.080;2022-10-16T12:48:01;96759.94;;;25.09;45.70
53440;BME280;39333;47.044;15.080;2022-10-16T12:50:37;96756.41;;;24.92;42.54
53440;BME280;39333;47.044;15.080;2022-10-16T12:53:21;96761.19;;;24.69;46.05
53440;BME280;39333;47.044;15.080;2022-10-16T12:56:02;96763.44;;;24.93;49.27
53440;BME280;39333;47.044;15.080;2022-10-16T12:59:13;96764.91;;;24.99;45.07
53440;BME280;39333;47.044;15.080;2022-10-16T13:02:08;96770.66;;;24.97;46.67
53440;BME280;39333;47.044;15.080;2022-10-16T13:24:09;96786.88;;;26.17;41.36
53440;BME280;39333;47.044;15.080;2022-10-16T13:29:19;96789.31;;;25.80;48.40
53440;BME280;39333;47.044;15.080;2022-10-16T13:31:46;96797.50;;;26.01;45.92
53440;BME280;39333;47.044;15.080;2022-10-16T13:34:19;96792.75;;;25.42;47.71
53440;BME280;39333;47.044;15.080;2022-10-16T13:36:50;96796.13;;;25.86;50.80
53440;BME280;39333;47.044;15.080;2022-10-16T13:39:25;96796.91;;;25.49;43.26
53440;BME280;39333;47.044;15.080;2022-10-16T13:42:04;96803.56;;;25.51;47.76
53440;BME280;39333;47.044;15.080;2022-10-16T13:44:44;96807.59;;;25.62;46.48
53440;BME280;39333;47.044;15.080;2022-10-16T13:47:17;96807.81;;;25.14;44.39
53440;BME280;39333;47.044;15.080;2022-10-16T13:49:44;96811.63;;;25.30;50.32
53440;BME280;39333;47.044;15.080;2022-10-16T13:52:17;96813.66;;;25.33;44.70
53440;BME280;39333;47.044;15.080;2022-10-16T13:54:44;96814.16;;;25.18;45.87
53440;BME280;39333;47.044;15.080;2022-10-16T13:57:15;96810.50;;;24.80;46.08
53440;BME280;39333;47.044;15.080;2022-10-16T13:59:52;96809.53;;;24.84;47.97
53440;BME280;39333;47.044;15.080;2022-10-16T14:02:26;96819.09;;;24.56;44.60
53440;BME280;39333;47.044;15.080;2022-10-16T14:04:56;96819.72;;;24.53;52.07
53440;BME280;39333;47.044;15.080;2022-10-16T14:07:26;96829.66;;;24.92;50.58
53440;BME280;39333;47.044;15.080;2022-10-16T14:09:54;96831.41;;;25.05;48.26
53440;BME280;39333;47.044;15.080;2022-10-16T14:12:22;96829.50;;;25.23;49.25
53440;BME280;39333;47.044;15.080;2022-10-16T14:14:54;96834.16;;;25.14;47.63
53440;BME280;39333;47.044;15.080;2022-10-16T14:17:25;96831.38;;;25.48;48.05
53440;BME280;39333;47.044;15.080;2022-10-16T14:19:55;96832.31;;;25.61;46.26
53440;BME280;39333;47.044;15.080;2022-10-16T14:25:02;96833.94;;;25.62;
53440;BME280;39333;47.044;15.080;2022-10-16T14:27:40;96834.91;;;26.04;48.41
53440;BME280;39333;47.044;15.080;2022-10-16T14:30:16;96839.19;;;26.13;47.29
53440;BME280;39333;47.044;15.080;2022-10-16T14:32:54;96836.34;;;26.01;48.41
53440;BME280;39333;47.044;15.080;2022-10-16T14:35:38;96838.38;;;26.13;48.30
53440;BME280;39333;47.044;15.080;2022-10-16T14:38:06;96848.38;;;25.92;44.81
53440;BME280;39333;47.044;15.080;2022-10-16T14:40:47;96852.84;;;25.88;48.43
53440;BME280;39333;47.044;15.080;2022-10-16T14:43:22;96851.03;;;26.00;48.55
53440;BME280;39333;47.044;15.080;2022-10-16T14:45:52;96862.66;;;25.71;48.35
53440;BME280;39333;47.044;15.080;2022-10-16T14:48:19;96861.75;;;25.07;45.43
53440;BME280;39333;47.044;15.080;2022-10-16T14:50:47;96861.16;;;24.53;48.60
53440;BME280;39333;47.044;15.080;2022-10-16T14:53:14;96867.94;;;24.82;51.00